sensor_id;sensor_type;location;lat;lon;timestamp;temperature;humidity
1626;DHT22;806;48.770;9.156;2023-12-20T00:02:09;7.00;23.60
1626;DHT22;806;48.770;9.156;2023-12-20T00:04:36;7.00;27.30
1626;DHT22;806;48.770;9.156;2023-12-20T00:07:03;7.00;25.70
1626;DHT22;806;48.770;9.156;2023-12-20T00:09:32;7.00;26.50
1626;DHT22;806;48.770;9.156;2023-12-20T00:11:59;7.00;27.70
1626;DHT22;806;48.770;9.156;2023-12-20T00:14:26;7.10;28.90
1626;DHT22;806;48.770;9.156;2023-12-20T00:16:53;7.10;28.00
1626;DHT22;806;48.770;9.156;2023-12-20T00:19:20;7.10;25.40
1626;DHT22;806;48.770;9.156;2023-12-20T00:21:47;7.00;30.70
1626;DHT22;806;48.770;9.156;2023-12-20T00:24:15;7.00;38.30
1626;DHT22;806;48.770;9.156;2023-12-20T00:26:43;7.00;40.40
1626;DHT22;806;48.770;9.156;2023-12-20T00:29:10;7.00;45.20
1626;DHT22;806;48.770;9.156;2023-12-20T00:31:37;7.00;47.60
1626;DHT22;806;48.770;9.156;2023-12-20T00:34:04;6.90;56.10
1626;DHT22;806;48.770;9.156;2023-12-20T00:36:31;6.90;67.50
1626;DHT22;806;48.770;9.156;2023-12-20T00:38:58;6.90;74.40
1626;DHT22;806;48.770;9.156;2023-12-20T00:41:26;6.90;83.60
1626;DHT22;806;48.770;9.156;2023-12-20T00:43:54;6.80;93.70
1626;DHT22;806;48.770;9.156;2023-12-20T00:46:21;6.80;98.90
1626;DHT22;806;48.770;9.156;2023-12-20T00:48:48;6.80;99.90
1626;DHT22;806;48.770;9.156;2023-12-20T00:51:15;6.70;99.90
1626;DHT22;806;48.770;9.156;2023-12-20T00:53:43;6.70;99.90
1626;DHT22;806;48.770;9.156;2023-12-20T00:56:10;6.70;99.90
1626;DHT22;806;48.770;9.156;2023-12-20T00:58:37;6.70;99.90
1626;DHT22;806;48.770;9.156;2023-12-20T01:01:05;6.70;99.90
1626;DHT22;806;48.770;9.156;2023-12-20T01:03:32;6.60;99.90
1626;DHT22;806;48.770;9.156;2023-12-20T01:05:59;6.60;99.90
1626;DHT22;806;48.770;9.156;2023-12-20T01:08:26;6.60;99.90
1626;DHT22;806;48.770;9.156;2023-12-20T01:10:54;6.50;99.90
1626;DHT22;806;48.770;9.156;2023-12-20T01:13:21;6.60;99.90
1626;DHT22;806;48.770;9.156;2023-12-20T01:15:48;6.50;99.90
1626;DHT22;806;48.770;9.156;2023-12-20T01:18:17;6.50;99.90
1626;DHT22;806;48.770;9.156;2023-12-20T01:20:44;6.50;99.90
1626;DHT22;806;48.770;9.156;2023-12-20T01:23:11;6.40;99.90
1626;DHT22;806;48.770;9.156;2023-12-20T01:25:39;6.50;99.90
1626;DHT22;806;48.770;9.156;2023-12-20T01:28:07;6.40;99.90
1626;DHT22;806;48.770;9.156;2023-12-20T01:30:34;6.30;99.90
1626;DHT22;806;48.770;9.156;2023-12-20T01:33:01;6.30;99.90
1626;DHT22;806;48.770;9.156;2023-12-20T01:35:29;6.30;99.90
1626;DHT22;806;48.770;9.156;2023-12-20T01:37:56;6.30;99.90
1626;DHT22;806;48.770;9.156;2023-12-20T01:40:23;6.30;99.90
1626;DHT22;806;48.770;9.156;2023-12-20T01:42:58;6.30;99.90
1626;DHT22;806;48.770;9.156;2023-12-20T01:45:26;6.30;99.90
1626;DHT22;806;48.770;9.156;2023-12-20T01:47:53;6.30;99.90
1626;DHT22;806;48.770;9.156;2023-12-20T01:50:21;6.30;99.90
1626;DHT22;806;48.770;9.156;2023-12-20T01:52:50;6.30;99.90
1626;DHT22;806;48.770;9.156;2023-12-20T01:55:19;6.30;99.90
1626;DHT22;806;48.770;9.156;2023-12-20T01:57:46;6.30;99.90
1626;DHT22;806;48.770;9.156;2023-12-20T02:00:15;6.40;99.90
1626;DHT22;806;48.770;9.156;2023-12-20T02:02:43;6.40;99.90
1626;DHT22;806;48.770;9.156;2023-12-20T02:05:11;6.30;99.90
1626;DHT22;806;48.770;9.156;2023-12-20T02:07:39;6.30;99.90
1626;DHT22;806;48.770;9.156;2023-12-20T02:10:08;6.20;99.90
1626;DHT22;806;48.770;9.156;2023-12-20T02:12:35;6.30;99.90
1626;DHT22;806;48.770;9.156;2023-12-20T02:15:03;6.30;99.90
1626;DHT22;806;48.770;9.156;2023-12-20T02:17:30;6.30;99.90
1626;DHT22;806;48.770;9.156;2023-12-20T02:19:58;6.30;99.90
1626;DHT22;806;48.770;9.156;2023-12-20T02:22:26;6.30;99.90
1626;DHT22;806;48.770;9.156;2023-12-20T02:24:53;6.30;99.90
1626;DHT22;806;48.770;9.156;2023-12-20T02:27:22;6.40;99.90
1626;DHT22;806;48.770;9.156;2023-12-20T02:29:50;6.40;99.90
1626;DHT22;806;48.770;9.156;2023-12-20T02:32:18;6.30;99.90
1626;DHT22;806;48.770;9.156;2023-12-20T02:34:47;6.40;99.90
1626;DHT22;806;48.770;9.156;2023-12-20T02:37:15;6.50;99.90
1626;DHT22;806;48.770;9.156;2023-12-20T02:39:43;6.50;99.90
1626;DHT22;806;48.770;9.156;2023-12-20T02:42:10;6.50;99.90
1626;DHT22;806;48.770;9.156;2023-12-20T02:44:37;6.50;99.90
1626;DHT22;806;48.770;9.156;2023-12-20T02:47:04;6.50;99.90
1626;DHT22;806;48.770;9.156;2023-12-20T02:49:31;6.50;99.90
1626;DHT22;806;48.770;9.156;2023-12-20T02:51:58;6.40;99.90
1626;DHT22;806;48.770;9.156;2023-12-20T02:54:25;6.50;99.90
1626;DHT22;806;48.770;9.156;2023-12-20T02:56:54;6.50;99.90
1626;DHT22;806;48.770;9.156;2023-12-20T02:59:21;6.50;99.90
1626;DHT22;806;48.770;9.156;2023-12-20T03:01:48;6.50;99.90
1626;DHT22;806;48.770;9.156;2023-12-20T03:04:15;6.50;99.90
1626;DHT22;806;48.770;9.156;2023-12-20T03:06:42;6.60;99.90
1626;DHT22;806;48.770;9.156;2023-12-20T03:09:09;6.60;99.90
1626;DHT22;806;48.770;9.156;2023-12-20T03:11:36;6.60;99.90
1626;DHT22;806;48.770;9.156;2023-12-20T03:14:05;6.60;99.90
1626;DHT22;806;48.770;9.156;2023-12-20T03:16:32;6.60;99.90
1626;DHT22;806;48.770;9.156;2023-12-20T03:18:59;6.60;99.90
1626;DHT22;806;48.770;9.156;2023-12-20T03:21:26;6.70;99.90
1626;DHT22;806;48.770;9.156;2023-12-20T03:23:53;6.70;99.90
1626;DHT22;806;48.770;9.156;2023-12-20T03:26:20;6.70;99.90
1626;DHT22;806;48.770;9.156;2023-12-20T03:28:47;6.70;99.90
1626;DHT22;806;48.770;9.156;2023-12-20T03:31:16;6.70;99.90
1626;DHT22;806;48.770;9.156;2023-12-20T03:33:43;6.80;99.90
1626;DHT22;806;48.770;9.156;2023-12-20T03:36:11;6.80;99.90
1626;DHT22;806;48.770;9.156;2023-12-20T03:38:38;6.80;99.90
1626;DHT22;806;48.770;9.156;2023-12-20T03:41:05;6.70;99.90
1626;DHT22;806;48.770;9.156;2023-12-20T03:43:32;6.80;99.90
1626;DHT22;806;48.770;9.156;2023-12-20T03:45:59;6.70;99.90
1626;DHT22;806;48.770;9.156;2023-12-20T03:48:27;6.70;99.90
1626;DHT22;806;48.770;9.156;2023-12-20T03:50:54;6.60;99.90
1626;DHT22;806;48.770;9.156;2023-12-20T03:53:22;6.60;99.90
1626;DHT22;806;48.770;9.156;2023-12-20T03:55:49;6.60;99.90
1626;DHT22;806;48.770;9.156;2023-12-20T03:58:16;6.70;99.90
1626;DHT22;806;48.770;9.156;2023-12-20T04:00:43;6.70;99.90
1626;DHT22;806;48.770;9.156;2023-12-20T04:03:10;6.80;99.90
1626;DHT22;806;48.770;9.156;2023-12-20T04:05:40;6.70;99.90
1626;DHT22;806;48.770;9.156;2023-12-20T04:08:07;6.60;99.90
1626;DHT22;806;48.770;9.156;2023-12-20T04:10:34;6.60;99.90
1626;DHT22;806;48.770;9.156;2023-12-20T04:13:03;6.50;99.90
1626;DHT22;806;48.770;9.156;2023-12-20T04:15:30;6.50;99.90
1626;DHT22;806;48.770;9.156;2023-12-20T04:17:57;6.40;99.90
1626;DHT22;806;48.770;9.156;2023-12-20T04:20:24;6.30;99.90
1626;DHT22;806;48.770;9.156;2023-12-20T04:22:52;6.30;99.90
1626;DHT22;806;48.770;9.156;2023-12-20T04:25:20;6.40;99.90
1626;DHT22;806;48.770;9.156;2023-12-20T04:27:47;6.50;99.90
1626;DHT22;806;48.770;9.156;2023-12-20T04:30:14;6.60;99.90
1626;DHT22;806;48.770;9.156;2023-12-20T04:32:41;6.60;99.90
1626;DHT22;806;48.770;9.156;2023-12-20T04:35:08;6.60;99.90
1626;DHT22;806;48.770;9.156;2023-12-20T04:37:35;6.60;99.90
1626;DHT22;806;48.770;9.156;2023-12-20T04:40:05;6.60;99.90
1626;DHT22;806;48.770;9.156;2023-12-20T04:42:33;6.60;99.90
1626;DHT22;806;48.770;9.156;2023-12-20T04:45:00;6.50;99.90
1626;DHT22;806;48.770;9.156;2023-12-20T04:47:27;6.30;99.90
1626;DHT22;806;48.770;9.156;2023-12-20T04:49:54;6.20;99.90
1626;DHT22;806;48.770;9.156;2023-12-20T04:52:22;6.10;99.90
1626;DHT22;806;48.770;9.156;2023-12-20T04:54:49;6.10;99.90
1626;DHT22;806;48.770;9.156;2023-12-20T04:57:17;6.10;99.90
1626;DHT22;806;48.770;9.156;2023-12-20T04:59:44;6.10;99.90
1626;DHT22;806;48.770;9.156;2023-12-20T05:02:11;6.10;99.90
1626;DHT22;806;48.770;9.156;2023-12-20T05:04:38;6.10;99.90
1626;DHT22;806;48.770;9.156;2023-12-20T05:07:06;6.10;99.90
1626;DHT22;806;48.770;9.156;2023-12-20T05:09:33;6.20;99.90
1626;DHT22;806;48.770;9.156;2023-12-20T05:12:00;6.20;99.90
1626;DHT22;806;48.770;9.156;2023-12-20T05:14:28;6.30;99.90
1626;DHT22;806;48.770;9.156;2023-12-20T05:16:56;6.30;99.90
1626;DHT22;806;48.770;9.156;2023-12-20T05:19:23;6.30;99.90
1626;DHT22;806;48.770;9.156;2023-12-20T05:21:50;6.40;99.90
1626;DHT22;806;48.770;9.156;2023-12-20T05:24:17;6.40;99.90
1626;DHT22;806;48.770;9.156;2023-12-20T05:26:44;6.70;99.90
1626;DHT22;806;48.770;9.156;2023-12-20T05:29:12;6.70;99.90
1626;DHT22;806;48.770;9.156;2023-12-20T05:31:40;6.80;99.90
1626;DHT22;806;48.770;9.156;2023-12-20T05:34:07;6.60;99.90
1626;DHT22;806;48.770;9.156;2023-12-20T05:36:34;6.50;99.90
1626;DHT22;806;48.770;9.156;2023-12-20T05:39:01;6.60;99.90
1626;DHT22;806;48.770;9.156;2023-12-20T05:41:29;6.50;99.90
1626;DHT22;806;48.770;9.156;2023-12-20T05:43:56;6.40;99.90
1626;DHT22;806;48.770;9.156;2023-12-20T05:46:23;6.40;99.90
1626;DHT22;806;48.770;9.156;2023-12-20T05:48:52;6.40;99.90
1626;DHT22;806;48.770;9.156;2023-12-20T05:51:19;6.50;99.90
1626;DHT22;806;48.770;9.156;2023-12-20T05:53:46;6.60;99.90
1626;DHT22;806;48.770;9.156;2023-12-20T05:56:15;6.70;99.90
1626;DHT22;806;48.770;9.156;2023-12-20T05:58:42;6.60;99.90
1626;DHT22;806;48.770;9.156;2023-12-20T06:01:10;6.40;99.90
1626;DHT22;806;48.770;9.156;2023-12-20T06:03:41;6.30;99.90
1626;DHT22;806;48.770;9.156;2023-12-20T06:06:10;6.30;99.90
1626;DHT22;806;48.770;9.156;2023-12-20T06:08:38;6.50;99.90
1626;DHT22;806;48.770;9.156;2023-12-20T06:11:05;6.60;99.90
1626;DHT22;806;48.770;9.156;2023-12-20T06:13:32;6.60;99.90
1626;DHT22;806;48.770;9.156;2023-12-20T06:15:59;6.70;99.90
1626;DHT22;806;48.770;9.156;2023-12-20T06:18:26;6.60;99.90
1626;DHT22;806;48.770;9.156;2023-12-20T06:20:55;6.50;99.90
1626;DHT22;806;48.770;9.156;2023-12-20T06:23:23;6.60;99.90
1626;DHT22;806;48.770;9.156;2023-12-20T06:25:50;6.50;99.90
1626;DHT22;806;48.770;9.156;2023-12-20T06:28:17;6.50;99.90
1626;DHT22;806;48.770;9.156;2023-12-20T06:30:45;6.60;99.90
1626;DHT22;806;48.770;9.156;2023-12-20T06:33:15;6.50;99.90
1626;DHT22;806;48.770;9.156;2023-12-20T06:35:44;6.70;99.90
1626;DHT22;806;48.770;9.156;2023-12-20T06:38:11;6.90;99.90
1626;DHT22;806;48.770;9.156;2023-12-20T06:40:42;7.10;99.90
1626;DHT22;806;48.770;9.156;2023-12-20T06:43:10;7.00;99.90
1626;DHT22;806;48.770;9.156;2023-12-20T06:45:37;6.90;99.90
1626;DHT22;806;48.770;9.156;2023-12-20T06:48:05;6.90;99.90
1626;DHT22;806;48.770;9.156;2023-12-20T06:50:32;6.80;99.90
1626;DHT22;806;48.770;9.156;2023-12-20T06:52:59;6.80;99.90
1626;DHT22;806;48.770;9.156;2023-12-20T06:55:32;6.60;99.90
1626;DHT22;806;48.770;9.156;2023-12-20T06:58:01;6.90;99.90
1626;DHT22;806;48.770;9.156;2023-12-20T07:00:28;6.80;99.90
1626;DHT22;806;48.770;9.156;2023-12-20T07:02:55;7.10;99.90
1626;DHT22;806;48.770;9.156;2023-12-20T07:05:22;7.30;99.90
1626;DHT22;806;48.770;9.156;2023-12-20T07:07:49;7.30;99.90
1626;DHT22;806;48.770;9.156;2023-12-20T07:10:16;7.30;99.90
1626;DHT22;806;48.770;9.156;2023-12-20T07:12:43;7.20;99.90
1626;DHT22;806;48.770;9.156;2023-12-20T07:15:12;7.10;99.90
1626;DHT22;806;48.770;9.156;2023-12-20T07:17:39;7.10;99.90
1626;DHT22;806;48.770;9.156;2023-12-20T07:20:09;7.10;99.90
1626;DHT22;806;48.770;9.156;2023-12-20T07:22:37;7.00;99.90
1626;DHT22;806;48.770;9.156;2023-12-20T07:25:05;7.00;99.90
1626;DHT22;806;48.770;9.156;2023-12-20T07:27:32;7.10;99.90
1626;DHT22;806;48.770;9.156;2023-12-20T07:30:01;7.30;99.90
1626;DHT22;806;48.770;9.156;2023-12-20T07:32:29;7.20;99.90
1626;DHT22;806;48.770;9.156;2023-12-20T07:34:58;7.10;99.90
1626;DHT22;806;48.770;9.156;2023-12-20T07:37:25;7.00;99.90
1626;DHT22;806;48.770;9.156;2023-12-20T07:39:52;6.90;99.90
1626;DHT22;806;48.770;9.156;2023-12-20T07:42:19;7.00;99.90
1626;DHT22;806;48.770;9.156;2023-12-20T07:44:47;7.00;99.90
1626;DHT22;806;48.770;9.156;2023-12-20T07:47:14;7.10;99.90
1626;DHT22;806;48.770;9.156;2023-12-20T07:49:46;6.90;99.90
1626;DHT22;806;48.770;9.156;2023-12-20T07:52:13;6.80;99.90
1626;DHT22;806;48.770;9.156;2023-12-20T07:54:40;6.70;99.90
1626;DHT22;806;48.770;9.156;2023-12-20T07:57:08;6.80;99.90
1626;DHT22;806;48.770;9.156;2023-12-20T07:59:36;6.70;99.90
1626;DHT22;806;48.770;9.156;2023-12-20T08:02:03;6.70;99.90
1626;DHT22;806;48.770;9.156;2023-12-20T08:04:30;6.60;99.90
1626;DHT22;806;48.770;9.156;2023-12-20T08:06:59;6.70;99.90
1626;DHT22;806;48.770;9.156;2023-12-20T08:09:27;6.80;99.90
1626;DHT22;806;48.770;9.156;2023-12-20T08:11:54;7.10;99.90
1626;DHT22;806;48.770;9.156;2023-12-20T08:14:22;7.30;99.90
1626;DHT22;806;48.770;9.156;2023-12-20T08:16:49;7.50;99.90
1626;DHT22;806;48.770;9.156;2023-12-20T08:19:16;7.40;99.90
1626;DHT22;806;48.770;9.156;2023-12-20T08:21:43;7.10;99.90
1626;DHT22;806;48.770;9.156;2023-12-20T08:24:11;6.90;99.90
1626;DHT22;806;48.770;9.156;2023-12-20T08:26:39;6.90;99.90
1626;DHT22;806;48.770;9.156;2023-12-20T08:29:05;6.90;99.90
1626;DHT22;806;48.770;9.156;2023-12-20T08:31:32;7.10;99.90
1626;DHT22;806;48.770;9.156;2023-12-20T08:33:59;7.00;95.90
1626;DHT22;806;48.770;9.156;2023-12-20T08:36:26;6.80;99.90
1626;DHT22;806;48.770;9.156;2023-12-20T08:38:53;6.80;96.10
1626;DHT22;806;48.770;9.156;2023-12-20T08:41:22;6.70;95.40
1626;DHT22;806;48.770;9.156;2023-12-20T08:43:49;6.60;99.90
1626;DHT22;806;48.770;9.156;2023-12-20T08:46:16;6.60;99.90
1626;DHT22;806;48.770;9.156;2023-12-20T08:48:43;6.70;84.20
1626;DHT22;806;48.770;9.156;2023-12-20T08:51:14;6.70;99.90
1626;DHT22;806;48.770;9.156;2023-12-20T08:53:42;6.90;89.90
1626;DHT22;806;48.770;9.156;2023-12-20T08:56:10;6.70;94.80
1626;DHT22;806;48.770;9.156;2023-12-20T08:58:39;6.60;99.90
1626;DHT22;806;48.770;9.156;2023-12-20T09:01:06;6.60;98.40
1626;DHT22;806;48.770;9.156;2023-12-20T09:03:33;6.50;99.90
1626;DHT22;806;48.770;9.156;2023-12-20T09:06:00;6.30;99.90
1626;DHT22;806;48.770;9.156;2023-12-20T09:08:28;6.40;99.90
1626;DHT22;806;48.770;9.156;2023-12-20T09:10:55;6.40;99.90
1626;DHT22;806;48.770;9.156;2023-12-20T09:13:22;6.30;99.90
1626;DHT22;806;48.770;9.156;2023-12-20T09:15:55;6.30;99.90
1626;DHT22;806;48.770;9.156;2023-12-20T09:18:22;6.30;99.90
1626;DHT22;806;48.770;9.156;2023-12-20T09:20:49;6.30;99.90
1626;DHT22;806;48.770;9.156;2023-12-20T09:23:16;6.70;99.90
1626;DHT22;806;48.770;9.156;2023-12-20T09:25:44;6.80;99.90
1626;DHT22;806;48.770;9.156;2023-12-20T09:28:11;6.70;99.90
1626;DHT22;806;48.770;9.156;2023-12-20T09:30:38;6.60;99.00
1626;DHT22;806;48.770;9.156;2023-12-20T09:33:07;6.60;99.90
1626;DHT22;806;48.770;9.156;2023-12-20T09:35:34;6.70;99.90
1626;DHT22;806;48.770;9.156;2023-12-20T09:38:02;6.80;99.90
1626;DHT22;806;48.770;9.156;2023-12-20T09:40:29;7.10;99.90
1626;DHT22;806;48.770;9.156;2023-12-20T09:42:58;7.20;51.90
1626;DHT22;806;48.770;9.156;2023-12-20T09:45:25;7.20;57.40
1626;DHT22;806;48.770;9.156;2023-12-20T09:47:53;7.40;29.60
1626;DHT22;806;48.770;9.156;2023-12-20T09:50:22;7.30;1.00
1626;DHT22;806;48.770;9.156;2023-12-20T09:52:50;7.00;1.00
1626;DHT22;806;48.770;9.156;2023-12-20T09:55:18;7.00;1.00
1626;DHT22;806;48.770;9.156;2023-12-20T09:57:46;7.20;1.00
1626;DHT22;806;48.770;9.156;2023-12-20T10:00:13;7.40;1.00
1626;DHT22;806;48.770;9.156;2023-12-20T10:02:47;7.50;1.00
1626;DHT22;806;48.770;9.156;2023-12-20T10:05:17;7.50;1.00
1626;DHT22;806;48.770;9.156;2023-12-20T10:07:47;7.60;1.00
1626;DHT22;806;48.770;9.156;2023-12-20T10:10:14;7.70;1.00
1626;DHT22;806;48.770;9.156;2023-12-20T10:13:01;7.90;1.00
1626;DHT22;806;48.770;9.156;2023-12-20T10:15:29;7.90;1.00
1626;DHT22;806;48.770;9.156;2023-12-20T10:17:56;7.70;1.00
1626;DHT22;806;48.770;9.156;2023-12-20T10:20:24;7.50;99.90
1626;DHT22;806;48.770;9.156;2023-12-20T10:22:52;7.50;1.00
1626;DHT22;806;48.770;9.156;2023-12-20T10:25:20;7.60;1.00
1626;DHT22;806;48.770;9.156;2023-12-20T10:27:50;7.60;1.00
1626;DHT22;806;48.770;9.156;2023-12-20T10:30:17;7.60;70.20
1626;DHT22;806;48.770;9.156;2023-12-20T10:32:44;7.80;99.90
1626;DHT22;806;48.770;9.156;2023-12-20T10:35:11;8.00;99.90
1626;DHT22;806;48.770;9.156;2023-12-20T10:37:38;8.00;99.90
1626;DHT22;806;48.770;9.156;2023-12-20T10:40:08;8.00;6.80
1626;DHT22;806;48.770;9.156;2023-12-20T10:42:36;7.90;99.90
1626;DHT22;806;48.770;9.156;2023-12-20T10:45:04;7.60;1.00
1626;DHT22;806;48.770;9.156;2023-12-20T10:47:32;7.70;1.00
1626;DHT22;806;48.770;9.156;2023-12-20T10:49:59;7.40;1.00
1626;DHT22;806;48.770;9.156;2023-12-20T10:52:28;7.30;99.90
1626;DHT22;806;48.770;9.156;2023-12-20T10:54:56;7.40;1.00
1626;DHT22;806;48.770;9.156;2023-12-20T10:57:27;7.60;99.90
1626;DHT22;806;48.770;9.156;2023-12-20T10:59:56;7.80;93.60
1626;DHT22;806;48.770;9.156;2023-12-20T11:02:31;7.70;1.00
1626;DHT22;806;48.770;9.156;2023-12-20T11:05:04;7.40;99.90
1626;DHT22;806;48.770;9.156;2023-12-20T11:07:38;7.50;1.00
1626;DHT22;806;48.770;9.156;2023-12-20T11:10:14;7.60;1.00
1626;DHT22;806;48.770;9.156;2023-12-20T11:12:49;7.50;99.90
1626;DHT22;806;48.770;9.156;2023-12-20T11:15:18;7.50;99.90
1626;DHT22;806;48.770;9.156;2023-12-20T11:17:46;7.50;99.90
1626;DHT22;806;48.770;9.156;2023-12-20T11:20:13;7.50;99.90
1626;DHT22;806;48.770;9.156;2023-12-20T11:22:52;7.40;1.00
1626;DHT22;806;48.770;9.156;2023-12-20T11:25:20;7.40;99.90
1626;DHT22;806;48.770;9.156;2023-12-20T11:28:10;7.60;1.00
1626;DHT22;806;48.770;9.156;2023-12-20T11:30:47;7.70;99.90
1626;DHT22;806;48.770;9.156;2023-12-20T11:33:15;7.40;98.20
1626;DHT22;806;48.770;9.156;2023-12-20T11:35:42;7.60;99.90
1626;DHT22;806;48.770;9.156;2023-12-20T11:38:09;7.70;1.00
1626;DHT22;806;48.770;9.156;2023-12-20T11:40:37;7.70;1.00
1626;DHT22;806;48.770;9.156;2023-12-20T11:43:04;7.50;99.90
1626;DHT22;806;48.770;9.156;2023-12-20T11:45:33;7.60;99.90
1626;DHT22;806;48.770;9.156;2023-12-20T11:48:02;7.80;99.90
1626;DHT22;806;48.770;9.156;2023-12-20T11:50:29;7.50;1.00
1626;DHT22;806;48.770;9.156;2023-12-20T11:52:57;7.40;10.90
1626;DHT22;806;48.770;9.156;2023-12-20T11:55:24;7.40;99.90
1626;DHT22;806;48.770;9.156;2023-12-20T11:57:52;7.40;99.90
1626;DHT22;806;48.770;9.156;2023-12-20T12:00:19;7.20;1.00
1626;DHT22;806;48.770;9.156;2023-12-20T12:02:58;7.20;95.10
1626;DHT22;806;48.770;9.156;2023-12-20T12:05:27;7.00;1.00
1626;DHT22;806;48.770;9.156;2023-12-20T12:07:54;7.00;99.90
1626;DHT22;806;48.770;9.156;2023-12-20T12:10:21;7.10;99.90
1626;DHT22;806;48.770;9.156;2023-12-20T12:12:48;7.10;2.60
1626;DHT22;806;48.770;9.156;2023-12-20T12:15:16;7.30;1.00
1626;DHT22;806;48.770;9.156;2023-12-20T12:17:43;7.30;99.90
1626;DHT22;806;48.770;9.156;2023-12-20T12:20:11;7.60;99.90
1626;DHT22;806;48.770;9.156;2023-12-20T12:22:39;7.60;1.00
1626;DHT22;806;48.770;9.156;2023-12-20T12:25:11;7.70;99.90
1626;DHT22;806;48.770;9.156;2023-12-20T12:27:40;7.60;1.00
1626;DHT22;806;48.770;9.156;2023-12-20T12:30:11;7.60;1.00
1626;DHT22;806;48.770;9.156;2023-12-20T12:32:39;7.50;1.00
1626;DHT22;806;48.770;9.156;2023-12-20T12:35:08;7.40;1.00
1626;DHT22;806;48.770;9.156;2023-12-20T12:37:38;7.30;1.00
1626;DHT22;806;48.770;9.156;2023-12-20T12:40:09;7.20;1.00
1626;DHT22;806;48.770;9.156;2023-12-20T12:42:36;7.50;99.90
1626;DHT22;806;48.770;9.156;2023-12-20T12:45:04;7.60;1.00
1626;DHT22;806;48.770;9.156;2023-12-20T12:47:32;7.70;1.00
1626;DHT22;806;48.770;9.156;2023-12-20T12:49:59;7.50;1.10
1626;DHT22;806;48.770;9.156;2023-12-20T12:52:26;7.50;1.00
1626;DHT22;806;48.770;9.156;2023-12-20T12:54:55;7.60;99.90
1626;DHT22;806;48.770;9.156;2023-12-20T12:57:22;7.50;99.90
1626;DHT22;806;48.770;9.156;2023-12-20T12:59:49;7.40;1.00
1626;DHT22;806;48.770;9.156;2023-12-20T13:02:17;7.70;99.90
1626;DHT22;806;48.770;9.156;2023-12-20T13:04:44;7.70;1.00
1626;DHT22;806;48.770;9.156;2023-12-20T13:07:12;7.70;99.90
1626;DHT22;806;48.770;9.156;2023-12-20T13:09:40;7.70;1.00
1626;DHT22;806;48.770;9.156;2023-12-20T13:12:08;7.50;1.00
1626;DHT22;806;48.770;9.156;2023-12-20T13:14:36;7.50;1.00
1626;DHT22;806;48.770;9.156;2023-12-20T13:17:03;7.50;1.00
1626;DHT22;806;48.770;9.156;2023-12-20T13:19:31;7.40;1.00
1626;DHT22;806;48.770;9.156;2023-12-20T13:21:59;7.40;1.00
1626;DHT22;806;48.770;9.156;2023-12-20T13:24:26;7.50;1.00
1626;DHT22;806;48.770;9.156;2023-12-20T13:26:53;7.50;63.60
1626;DHT22;806;48.770;9.156;2023-12-20T13:29:21;7.40;1.00
1626;DHT22;806;48.770;9.156;2023-12-20T13:31:49;7.50;1.00
1626;DHT22;806;48.770;9.156;2023-12-20T13:34:16;7.40;1.00
1626;DHT22;806;48.770;9.156;2023-12-20T13:36:44;7.40;1.00
1626;DHT22;806;48.770;9.156;2023-12-20T13:39:13;7.40;1.00
1626;DHT22;806;48.770;9.156;2023-12-20T13:41:40;7.30;1.00
1626;DHT22;806;48.770;9.156;2023-12-20T13:44:08;7.30;1.00
1626;DHT22;806;48.770;9.156;2023-12-20T13:46:37;7.30;1.00
1626;DHT22;806;48.770;9.156;2023-12-20T13:49:04;7.30;1.00
1626;DHT22;806;48.770;9.156;2023-12-20T13:51:31;7.30;1.00
1626;DHT22;806;48.770;9.156;2023-12-20T13:53:58;7.30;1.00
1626;DHT22;806;48.770;9.156;2023-12-20T13:56:25;7.40;1.00
1626;DHT22;806;48.770;9.156;2023-12-20T13:58:52;7.40;1.80
1626;DHT22;806;48.770;9.156;2023-12-20T14:01:20;7.40;1.00
1626;DHT22;806;48.770;9.156;2023-12-20T14:03:48;7.40;1.00
1626;DHT22;806;48.770;9.156;2023-12-20T14:06:15;7.40;1.00
1626;DHT22;806;48.770;9.156;2023-12-20T14:08:43;7.30;1.00
1626;DHT22;806;48.770;9.156;2023-12-20T14:11:10;7.20;1.00
1626;DHT22;806;48.770;9.156;2023-12-20T14:13:38;7.10;96.30
1626;DHT22;806;48.770;9.156;2023-12-20T14:16:05;7.10;99.90
1626;DHT22;806;48.770;9.156;2023-12-20T14:18:32;7.10;99.90
1626;DHT22;806;48.770;9.156;2023-12-20T14:21:01;7.20;99.90
1626;DHT22;806;48.770;9.156;2023-12-20T14:23:28;7.20;1.00
1626;DHT22;806;48.770;9.156;2023-12-20T14:25:55;7.10;1.00
1626;DHT22;806;48.770;9.156;2023-12-20T14:28:24;7.00;61.00
1626;DHT22;806;48.770;9.156;2023-12-20T14:30:51;7.00;1.00
1626;DHT22;806;48.770;9.156;2023-12-20T14:33:18;7.00;99.90
1626;DHT22;806;48.770;9.156;2023-12-20T14:35:47;6.90;1.00
1626;DHT22;806;48.770;9.156;2023-12-20T14:38:15;7.10;99.90
1626;DHT22;806;48.770;9.156;2023-12-20T14:40:42;7.00;99.90
1626;DHT22;806;48.770;9.156;2023-12-20T14:43:10;6.90;1.00
1626;DHT22;806;48.770;9.156;2023-12-20T14:45:37;6.90;1.00
1626;DHT22;806;48.770;9.156;2023-12-20T14:48:05;6.90;1.00
1626;DHT22;806;48.770;9.156;2023-12-20T14:50:32;7.00;1.00
1626;DHT22;806;48.770;9.156;2023-12-20T14:53:00;7.30;1.00
1626;DHT22;806;48.770;9.156;2023-12-20T14:55:28;7.30;99.90
1626;DHT22;806;48.770;9.156;2023-12-20T14:57:55;7.20;1.00
1626;DHT22;806;48.770;9.156;2023-12-20T15:00:22;7.10;99.90
1626;DHT22;806;48.770;9.156;2023-12-20T15:02:49;7.00;1.00
1626;DHT22;806;48.770;9.156;2023-12-20T15:05:17;6.80;99.90
1626;DHT22;806;48.770;9.156;2023-12-20T15:07:44;7.00;1.00
1626;DHT22;806;48.770;9.156;2023-12-20T15:10:12;7.00;99.90
1626;DHT22;806;48.770;9.156;2023-12-20T15:12:41;7.00;1.00
1626;DHT22;806;48.770;9.156;2023-12-20T15:15:09;6.90;1.00
1626;DHT22;806;48.770;9.156;2023-12-20T15:17:36;6.90;1.00
1626;DHT22;806;48.770;9.156;2023-12-20T15:20:04;6.80;1.00
1626;DHT22;806;48.770;9.156;2023-12-20T15:22:31;6.90;1.00
1626;DHT22;806;48.770;9.156;2023-12-20T15:25:00;6.90;1.00
1626;DHT22;806;48.770;9.156;2023-12-20T15:27:28;6.80;1.00
1626;DHT22;806;48.770;9.156;2023-12-20T15:29:57;6.70;1.00
1626;DHT22;806;48.770;9.156;2023-12-20T15:32:24;6.70;1.00
1626;DHT22;806;48.770;9.156;2023-12-20T15:34:51;6.50;1.00
1626;DHT22;806;48.770;9.156;2023-12-20T15:37:18;6.40;1.00
1626;DHT22;806;48.770;9.156;2023-12-20T15:39:45;6.40;1.00
1626;DHT22;806;48.770;9.156;2023-12-20T15:42:15;6.40;1.00
1626;DHT22;806;48.770;9.156;2023-12-20T15:44:42;6.30;1.00
1626;DHT22;806;48.770;9.156;2023-12-20T15:47:10;6.30;1.00
1626;DHT22;806;48.770;9.156;2023-12-20T15:49:37;6.40;1.00
1626;DHT22;806;48.770;9.156;2023-12-20T15:52:05;6.30;1.00
1626;DHT22;806;48.770;9.156;2023-12-20T15:54:32;6.20;1.00
1626;DHT22;806;48.770;9.156;2023-12-20T15:56:59;6.10;1.00
1626;DHT22;806;48.770;9.156;2023-12-20T15:59:26;6.20;1.00
1626;DHT22;806;48.770;9.156;2023-12-20T16:01:53;6.20;1.00
1626;DHT22;806;48.770;9.156;2023-12-20T16:04:22;6.10;1.00
1626;DHT22;806;48.770;9.156;2023-12-20T16:06:49;6.00;1.00
1626;DHT22;806;48.770;9.156;2023-12-20T16:09:16;6.00;1.00
1626;DHT22;806;48.770;9.156;2023-12-20T16:11:43;6.00;1.00
1626;DHT22;806;48.770;9.156;2023-12-20T16:14:10;5.90;1.00
1626;DHT22;806;48.770;9.156;2023-12-20T16:16:41;5.90;1.00
1626;DHT22;806;48.770;9.156;2023-12-20T16:19:08;5.90;1.00
1626;DHT22;806;48.770;9.156;2023-12-20T16:21:37;5.90;1.00
1626;DHT22;806;48.770;9.156;2023-12-20T16:24:04;6.00;4.30
1626;DHT22;806;48.770;9.156;2023-12-20T16:26:32;6.10;1.00
1626;DHT22;806;48.770;9.156;2023-12-20T16:29:00;6.20;12.90
1626;DHT22;806;48.770;9.156;2023-12-20T16:31:27;6.30;1.00
1626;DHT22;806;48.770;9.156;2023-12-20T16:33:54;6.20;1.00
1626;DHT22;806;48.770;9.156;2023-12-20T16:36:21;6.10;1.00
1626;DHT22;806;48.770;9.156;2023-12-20T16:38:50;6.00;1.00
1626;DHT22;806;48.770;9.156;2023-12-20T16:41:17;5.90;1.00
1626;DHT22;806;48.770;9.156;2023-12-20T16:43:44;5.90;1.00